sensor_id;sensor_type;location;lat;lon;timestamp;P1;durP1;ratioP1;P2;durP2;ratioP2
14292;SDS011;62290;59.420;17.842;2023-06-14T00:00:03;24.38;;;3.97;;
14292;SDS011;62290;59.420;17.842;2023-06-14T00:02:34;17.63;;;3.83;;
14292;SDS011;62290;59.420;17.842;2023-06-14T00:05:03;19.02;;;3.92;;
14292;SDS011;62290;59.420;17.842;2023-06-14T00:07:35;9.48;;;2.85;;
14292;SDS011;62290;59.420;17.842;2023-06-14T00:10:06;10.40;;;3.17;;
14292;SDS011;62290;59.420;17.842;2023-06-14T00:12:35;11.55;;;2.95;;
14292;SDS011;62290;59.420;17.842;2023-06-14T00:15:04;13.57;;;3.53;;
14292;SDS011;62290;59.420;17.842;2023-06-14T00:17:33;5.25;;;2.78;;
14292;SDS011;62290;59.420;17.842;2023-06-14T00:20:03;7.97;;;2.85;;
14292;SDS011;62290;59.420;17.842;2023-06-14T00:22:34;9.88;;;2.70;;
14292;SDS011;62290;59.420;17.842;2023-06-14T00:25:03;4.22;;;2.83;;
14292;SDS011;62290;59.420;17.842;2023-06-14T00:27:54;5.00;;;2.75;;
14292;SDS011;62290;59.420;17.842;2023-06-14T00:30:22;8.43;;;2.60;;
14292;SDS011;62290;59.420;17.842;2023-06-14T00:32:51;3.40;;;2.28;;
14292;SDS011;62290;59.420;17.842;2023-06-14T00:35:19;7.00;;;2.50;;
14292;SDS011;62290;59.420;17.842;2023-06-14T00:37:47;6.15;;;2.78;;
14292;SDS011;62290;59.420;17.842;2023-06-14T00:40:15;6.03;;;2.90;;
14292;SDS011;62290;59.420;17.842;2023-06-14T00:42:44;3.63;;;2.75;;
14292;SDS011;62290;59.420;17.842;2023-06-14T00:45:14;4.95;;;2.67;;
14292;SDS011;62290;59.420;17.842;2023-06-14T00:47:42;5.90;;;3.47;;
14292;SDS011;62290;59.420;17.842;2023-06-14T00:50:12;8.85;;;3.20;;
14292;SDS011;62290;59.420;17.842;2023-06-14T00:52:40;8.38;;;3.53;;
14292;SDS011;62290;59.420;17.842;2023-06-14T00:55:08;5.63;;;2.72;;
14292;SDS011;62290;59.420;17.842;2023-06-14T00:57:36;8.38;;;3.15;;
14292;SDS011;62290;59.420;17.842;2023-06-14T01:00:07;7.03;;;3.30;;
14292;SDS011;62290;59.420;17.842;2023-06-14T01:02:38;4.22;;;2.83;;
14292;SDS011;62290;59.420;17.842;2023-06-14T01:05:08;5.63;;;3.00;;
14292;SDS011;62290;59.420;17.842;2023-06-14T01:07:49;3.55;;;2.97;;
14292;SDS011;62290;59.420;17.842;2023-06-14T01:10:35;4.22;;;2.75;;
14292;SDS011;62290;59.420;17.842;2023-06-14T01:13:11;5.63;;;2.60;;
14292;SDS011;62290;59.420;17.842;2023-06-14T01:15:44;6.93;;;3.17;;
14292;SDS011;62290;59.420;17.842;2023-06-14T01:18:14;6.93;;;3.38;;
14292;SDS011;62290;59.420;17.842;2023-06-14T01:20:44;5.72;;;2.88;;
14292;SDS011;62290;59.420;17.842;2023-06-14T01:23:17;5.82;;;3.20;;
14292;SDS011;62290;59.420;17.842;2023-06-14T01:25:47;4.82;;;2.85;;
14292;SDS011;62290;59.420;17.842;2023-06-14T01:28:19;5.13;;;2.95;;
14292;SDS011;62290;59.420;17.842;2023-06-14T01:30:49;3.60;;;2.78;;
14292;SDS011;62290;59.420;17.842;2023-06-14T01:33:20;9.75;;;3.00;;
14292;SDS011;62290;59.420;17.842;2023-06-14T01:35:50;4.88;;;2.72;;
14292;SDS011;62290;59.420;17.842;2023-06-14T01:38:21;5.85;;;2.63;;
14292;SDS011;62290;59.420;17.842;2023-06-14T01:40:52;4.45;;;2.53;;
14292;SDS011;62290;59.420;17.842;2023-06-14T01:43:24;7.70;;;2.72;;
14292;SDS011;62290;59.420;17.842;2023-06-14T01:45:53;5.00;;;2.80;;
14292;SDS011;62290;59.420;17.842;2023-06-14T01:48:22;7.55;;;2.92;;
14292;SDS011;62290;59.420;17.842;2023-06-14T01:50:50;7.57;;;3.10;;
14292;SDS011;62290;59.420;17.842;2023-06-14T01:53:21;8.07;;;2.78;;
14292;SDS011;62290;59.420;17.842;2023-06-14T01:55:49;4.18;;;3.15;;
14292;SDS011;62290;59.420;17.842;2023-06-14T01:58:21;4.28;;;2.38;;
14292;SDS011;62290;59.420;17.842;2023-06-14T02:00:50;4.88;;;2.65;;
14292;SDS011;62290;59.420;17.842;2023-06-14T02:03:22;6.07;;;2.63;;
14292;SDS011;62290;59.420;17.842;2023-06-14T02:05:51;8.27;;;2.63;;
14292;SDS011;62290;59.420;17.842;2023-06-14T02:08:22;6.78;;;2.70;;
14292;SDS011;62290;59.420;17.842;2023-06-14T02:10:51;6.72;;;2.40;;
14292;SDS011;62290;59.420;17.842;2023-06-14T02:13:20;3.85;;;2.42;;
14292;SDS011;62290;59.420;17.842;2023-06-14T02:15:49;9.23;;;3.10;;
14292;SDS011;62290;59.420;17.842;2023-06-14T02:18:21;4.20;;;2.63;;
14292;SDS011;62290;59.420;17.842;2023-06-14T02:20:49;4.10;;;2.42;;
14292;SDS011;62290;59.420;17.842;2023-06-14T02:23:17;5.55;;;2.58;;
14292;SDS011;62290;59.420;17.842;2023-06-14T02:25:47;6.68;;;2.95;;
14292;SDS011;62290;59.420;17.842;2023-06-14T02:28:15;5.60;;;2.72;;
14292;SDS011;62290;59.420;17.842;2023-06-14T02:30:43;8.00;;;2.85;;
14292;SDS011;62290;59.420;17.842;2023-06-14T02:33:11;5.40;;;2.97;;
14292;SDS011;62290;59.420;17.842;2023-06-14T02:35:39;5.35;;;2.70;;
14292;SDS011;62290;59.420;17.842;2023-06-14T02:38:08;3.80;;;2.40;;
14292;SDS011;62290;59.420;17.842;2023-06-14T02:40:36;4.60;;;2.45;;
14292;SDS011;62290;59.420;17.842;2023-06-14T02:43:05;8.90;;;3.28;;
14292;SDS011;62290;59.420;17.842;2023-06-14T02:45:33;4.82;;;3.00;;
14292;SDS011;62290;59.420;17.842;2023-06-14T02:48:01;5.70;;;2.65;;
14292;SDS011;62290;59.420;17.842;2023-06-14T02:50:29;4.95;;;2.72;;
14292;SDS011;62290;59.420;17.842;2023-06-14T02:52:58;6.95;;;2.95;;
14292;SDS011;62290;59.420;17.842;2023-06-14T02:55:27;4.75;;;2.85;;
14292;SDS011;62290;59.420;17.842;2023-06-14T02:57:55;4.65;;;2.58;;
14292;SDS011;62290;59.420;17.842;2023-06-14T03:00:26;8.45;;;3.30;;
14292;SDS011;62290;59.420;17.842;2023-06-14T03:02:57;9.50;;;3.55;;
14292;SDS011;62290;59.420;17.842;2023-06-14T03:05:28;7.18;;;3.10;;
14292;SDS011;62290;59.420;17.842;2023-06-14T03:07:56;4.32;;;3.00;;
14292;SDS011;62290;59.420;17.842;2023-06-14T03:10:24;5.22;;;2.75;;
14292;SDS011;62290;59.420;17.842;2023-06-14T03:12:57;4.53;;;2.58;;
14292;SDS011;62290;59.420;17.842;2023-06-14T03:15:26;3.72;;;2.33;;
14292;SDS011;62290;59.420;17.842;2023-06-14T03:17:56;5.28;;;2.67;;
14292;SDS011;62290;59.420;17.842;2023-06-14T03:20:26;4.53;;;2.75;;
14292;SDS011;62290;59.420;17.842;2023-06-14T03:22:55;5.15;;;2.80;;
14292;SDS011;62290;59.420;17.842;2023-06-14T03:25:24;4.10;;;2.83;;
14292;SDS011;62290;59.420;17.842;2023-06-14T03:27:55;3.67;;;2.55;;
14292;SDS011;62290;59.420;17.842;2023-06-14T03:30:24;4.38;;;2.63;;
14292;SDS011;62290;59.420;17.842;2023-06-14T03:32:53;4.20;;;2.80;;
14292;SDS011;62290;59.420;17.842;2023-06-14T03:35:25;5.10;;;2.85;;
14292;SDS011;62290;59.420;17.842;2023-06-14T03:37:54;3.60;;;2.80;;
14292;SDS011;62290;59.420;17.842;2023-06-14T03:40:23;3.90;;;2.80;;
14292;SDS011;62290;59.420;17.842;2023-06-14T03:42:59;5.10;;;3.15;;
14292;SDS011;62290;59.420;17.842;2023-06-14T03:45:28;3.80;;;2.58;;
14292;SDS011;62290;59.420;17.842;2023-06-14T03:47:58;3.28;;;2.38;;
14292;SDS011;62290;59.420;17.842;2023-06-14T03:50:29;7.50;;;2.83;;
14292;SDS011;62290;59.420;17.842;2023-06-14T03:52:58;5.95;;;2.60;;
14292;SDS011;62290;59.420;17.842;2023-06-14T03:55:28;3.42;;;2.45;;
14292;SDS011;62290;59.420;17.842;2023-06-14T03:58:01;5.03;;;2.58;;
14292;SDS011;62290;59.420;17.842;2023-06-14T04:00:30;6.25;;;2.20;;
14292;SDS011;62290;59.420;17.842;2023-06-14T04:03:00;4.45;;;2.65;;
14292;SDS011;62290;59.420;17.842;2023-06-14T04:05:30;6.70;;;2.53;;
14292;SDS011;62290;59.420;17.842;2023-06-14T04:07:59;7.43;;;2.78;;
14292;SDS011;62290;59.420;17.842;2023-06-14T04:10:30;2.80;;;2.20;;
14292;SDS011;62290;59.420;17.842;2023-06-14T04:12:58;3.60;;;2.42;;
14292;SDS011;62290;59.420;17.842;2023-06-14T04:15:26;2.85;;;2.55;;
14292;SDS011;62290;59.420;17.842;2023-06-14T04:17:56;3.85;;;2.10;;
14292;SDS011;62290;59.420;17.842;2023-06-14T04:20:26;6.20;;;2.60;;
14292;SDS011;62290;59.420;17.842;2023-06-14T04:22:56;4.22;;;2.90;;
14292;SDS011;62290;59.420;17.842;2023-06-14T04:25:24;4.95;;;2.35;;
14292;SDS011;62290;59.420;17.842;2023-06-14T04:27:55;7.70;;;4.20;;
14292;SDS011;62290;59.420;17.842;2023-06-14T04:30:24;3.85;;;2.95;;
14292;SDS011;62290;59.420;17.842;2023-06-14T04:32:53;4.82;;;3.13;;
14292;SDS011;62290;59.420;17.842;2023-06-14T04:35:23;4.25;;;2.90;;
14292;SDS011;62290;59.420;17.842;2023-06-14T04:37:54;11.38;;;3.28;;
14292;SDS011;62290;59.420;17.842;2023-06-14T04:40:22;5.43;;;2.90;;
14292;SDS011;62290;59.420;17.842;2023-06-14T04:42:50;9.15;;;2.50;;
14292;SDS011;62290;59.420;17.842;2023-06-14T04:45:19;12.60;;;3.00;;
14292;SDS011;62290;59.420;17.842;2023-06-14T04:47:50;11.27;;;3.30;;
14292;SDS011;62290;59.420;17.842;2023-06-14T04:50:26;12.90;;;3.50;;
14292;SDS011;62290;59.420;17.842;2023-06-14T04:52:57;22.42;;;3.95;;
14292;SDS011;62290;59.420;17.842;2023-06-14T04:55:27;8.15;;;3.58;;
14292;SDS011;62290;59.420;17.842;2023-06-14T04:57:55;15.43;;;3.17;;
14292;SDS011;62290;59.420;17.842;2023-06-14T05:00:24;10.93;;;3.38;;
14292;SDS011;62290;59.420;17.842;2023-06-14T05:02:52;11.50;;;3.80;;
14292;SDS011;62290;59.420;17.842;2023-06-14T05:05:20;10.45;;;3.42;;
14292;SDS011;62290;59.420;17.842;2023-06-14T05:07:49;11.07;;;3.42;;
14292;SDS011;62290;59.420;17.842;2023-06-14T05:10:18;18.48;;;2.78;;
14292;SDS011;62290;59.420;17.842;2023-06-14T05:12:46;14.43;;;3.38;;
14292;SDS011;62290;59.420;17.842;2023-06-14T05:15:17;6.45;;;3.50;;
14292;SDS011;62290;59.420;17.842;2023-06-14T05:17:45;18.73;;;3.38;;
14292;SDS011;62290;59.420;17.842;2023-06-14T05:20:19;7.65;;;3.20;;
14292;SDS011;62290;59.420;17.842;2023-06-14T05:22:49;8.48;;;3.10;;
14292;SDS011;62290;59.420;17.842;2023-06-14T05:25:19;8.93;;;2.92;;
14292;SDS011;62290;59.420;17.842;2023-06-14T05:27:48;7.72;;;3.28;;
14292;SDS011;62290;59.420;17.842;2023-06-14T05:30:17;6.93;;;3.13;;
14292;SDS011;62290;59.420;17.842;2023-06-14T05:32:44;10.00;;;2.83;;
14292;SDS011;62290;59.420;17.842;2023-06-14T05:35:13;9.88;;;3.03;;
14292;SDS011;62290;59.420;17.842;2023-06-14T05:37:41;10.02;;;2.83;;
14292;SDS011;62290;59.420;17.842;2023-06-14T05:40:10;5.15;;;2.47;;
14292;SDS011;62290;59.420;17.842;2023-06-14T05:42:39;8.57;;;2.55;;
14292;SDS011;62290;59.420;17.842;2023-06-14T05:45:08;10.70;;;3.20;;
14292;SDS011;62290;59.420;17.842;2023-06-14T05:47:36;8.65;;;3.28;;
14292;SDS011;62290;59.420;17.842;2023-06-14T05:50:05;9.07;;;3.22;;
14292;SDS011;62290;59.420;17.842;2023-06-14T05:52:34;9.70;;;3.20;;
14292;SDS011;62290;59.420;17.842;2023-06-14T05:55:03;5.60;;;2.78;;
14292;SDS011;62290;59.420;17.842;2023-06-14T05:57:32;4.60;;;2.75;;
14292;SDS011;62290;59.420;17.842;2023-06-14T06:00:02;9.57;;;3.15;;
14292;SDS011;62290;59.420;17.842;2023-06-14T06:02:37;6.40;;;2.50;;
14292;SDS011;62290;59.420;17.842;2023-06-14T06:05:06;5.57;;;2.53;;
14292;SDS011;62290;59.420;17.842;2023-06-14T06:07:35;4.70;;;2.85;;
14292;SDS011;62290;59.420;17.842;2023-06-14T06:10:04;4.50;;;2.60;;
14292;SDS011;62290;59.420;17.842;2023-06-14T06:12:32;4.10;;;2.22;;
14292;SDS011;62290;59.420;17.842;2023-06-14T06:15:02;6.55;;;2.00;;
14292;SDS011;62290;59.420;17.842;2023-06-14T06:17:30;5.20;;;2.28;;
14292;SDS011;62290;59.420;17.842;2023-06-14T06:20:18;5.35;;;2.63;;
14292;SDS011;62290;59.420;17.842;2023-06-14T06:22:47;5.72;;;2.60;;
14292;SDS011;62290;59.420;17.842;2023-06-14T06:25:15;6.13;;;2.90;;
14292;SDS011;62290;59.420;17.842;2023-06-14T06:27:44;7.40;;;2.78;;
14292;SDS011;62290;59.420;17.842;2023-06-14T06:30:14;5.47;;;2.40;;
14292;SDS011;62290;59.420;17.842;2023-06-14T06:32:42;4.38;;;2.42;;
14292;SDS011;62290;59.420;17.842;2023-06-14T06:35:10;3.83;;;2.53;;
14292;SDS011;62290;59.420;17.842;2023-06-14T06:37:39;8.75;;;2.50;;
14292;SDS011;62290;59.420;17.842;2023-06-14T06:40:09;4.55;;;2.60;;
14292;SDS011;62290;59.420;17.842;2023-06-14T06:42:38;6.88;;;2.72;;
14292;SDS011;62290;59.420;17.842;2023-06-14T06:45:10;5.30;;;2.80;;
14292;SDS011;62290;59.420;17.842;2023-06-14T06:47:40;7.95;;;2.97;;
14292;SDS011;62290;59.420;17.842;2023-06-14T06:50:09;8.05;;;2.80;;
14292;SDS011;62290;59.420;17.842;2023-06-14T06:52:37;3.40;;;2.60;;
14292;SDS011;62290;59.420;17.842;2023-06-14T06:55:05;3.97;;;2.70;;
14292;SDS011;62290;59.420;17.842;2023-06-14T06:57:35;5.57;;;3.20;;
14292;SDS011;62290;59.420;17.842;2023-06-14T07:00:03;4.53;;;2.88;;
14292;SDS011;62290;59.420;17.842;2023-06-14T07:02:34;8.15;;;2.90;;
14292;SDS011;62290;59.420;17.842;2023-06-14T07:05:04;7.28;;;3.28;;
14292;SDS011;62290;59.420;17.842;2023-06-14T07:07:32;4.00;;;2.60;;
14292;SDS011;62290;59.420;17.842;2023-06-14T07:10:01;4.72;;;3.20;;
14292;SDS011;62290;59.420;17.842;2023-06-14T07:12:31;8.68;;;3.03;;
14292;SDS011;62290;59.420;17.842;2023-06-14T07:15:00;4.10;;;2.78;;
14292;SDS011;62290;59.420;17.842;2023-06-14T07:17:30;8.02;;;2.88;;
14292;SDS011;62290;59.420;17.842;2023-06-14T07:19:58;4.18;;;2.67;;
14292;SDS011;62290;59.420;17.842;2023-06-14T07:22:28;7.38;;;2.88;;
14292;SDS011;62290;59.420;17.842;2023-06-14T07:24:56;11.40;;;2.97;;
14292;SDS011;62290;59.420;17.842;2023-06-14T07:27:24;4.47;;;2.90;;
14292;SDS011;62290;59.420;17.842;2023-06-14T07:29:53;8.10;;;2.58;;
14292;SDS011;62290;59.420;17.842;2023-06-14T07:32:21;6.32;;;2.92;;
14292;SDS011;62290;59.420;17.842;2023-06-14T07:34:49;5.07;;;2.55;;
14292;SDS011;62290;59.420;17.842;2023-06-14T07:37:17;3.63;;;2.78;;
14292;SDS011;62290;59.420;17.842;2023-06-14T07:39:46;6.60;;;2.42;;
14292;SDS011;62290;59.420;17.842;2023-06-14T07:42:14;3.15;;;2.78;;
14292;SDS011;62290;59.420;17.842;2023-06-14T07:44:42;5.28;;;2.70;;
14292;SDS011;62290;59.420;17.842;2023-06-14T07:47:10;5.85;;;2.80;;
14292;SDS011;62290;59.420;17.842;2023-06-14T07:49:38;4.28;;;2.72;;
14292;SDS011;62290;59.420;17.842;2023-06-14T07:52:07;4.53;;;2.90;;
14292;SDS011;62290;59.420;17.842;2023-06-14T07:54:36;4.50;;;2.67;;
14292;SDS011;62290;59.420;17.842;2023-06-14T07:57:05;5.03;;;2.85;;
14292;SDS011;62290;59.420;17.842;2023-06-14T07:59:33;5.28;;;3.00;;
14292;SDS011;62290;59.420;17.842;2023-06-14T08:02:01;3.15;;;2.60;;
14292;SDS011;62290;59.420;17.842;2023-06-14T08:04:31;6.03;;;2.92;;
14292;SDS011;62290;59.420;17.842;2023-06-14T08:06:59;4.78;;;2.70;;
14292;SDS011;62290;59.420;17.842;2023-06-14T08:09:27;4.93;;;2.75;;
14292;SDS011;62290;59.420;17.842;2023-06-14T08:11:56;3.45;;;2.85;;
14292;SDS011;62290;59.420;17.842;2023-06-14T08:14:25;6.28;;;3.03;;
14292;SDS011;62290;59.420;17.842;2023-06-14T08:16:53;4.00;;;3.08;;
14292;SDS011;62290;59.420;17.842;2023-06-14T08:19:21;3.35;;;3.00;;
14292;SDS011;62290;59.420;17.842;2023-06-14T08:21:49;4.40;;;2.83;;
14292;SDS011;62290;59.420;17.842;2023-06-14T08:24:18;5.00;;;3.00;;
14292;SDS011;62290;59.420;17.842;2023-06-14T08:26:50;3.97;;;3.03;;
14292;SDS011;62290;59.420;17.842;2023-06-14T08:29:18;3.90;;;3.00;;
14292;SDS011;62290;59.420;17.842;2023-06-14T08:31:48;3.72;;;2.97;;
14292;SDS011;62290;59.420;17.842;2023-06-14T08:34:16;7.43;;;2.90;;
14292;SDS011;62290;59.420;17.842;2023-06-14T08:36:44;4.13;;;3.10;;
14292;SDS011;62290;59.420;17.842;2023-06-14T08:39:12;6.10;;;3.40;;
14292;SDS011;62290;59.420;17.842;2023-06-14T08:41:40;4.13;;;3.03;;
14292;SDS011;62290;59.420;17.842;2023-06-14T08:44:09;4.30;;;3.10;;
14292;SDS011;62290;59.420;17.842;2023-06-14T08:46:37;5.72;;;3.08;;
14292;SDS011;62290;59.420;17.842;2023-06-14T08:49:07;5.05;;;3.17;;
14292;SDS011;62290;59.420;17.842;2023-06-14T08:51:38;4.63;;;3.38;;
14292;SDS011;62290;59.420;17.842;2023-06-14T08:54:07;5.82;;;3.10;;
14292;SDS011;62290;59.420;17.842;2023-06-14T08:56:35;8.07;;;3.50;;
14292;SDS011;62290;59.420;17.842;2023-06-14T08:59:08;5.60;;;3.33;;
14292;SDS011;62290;59.420;17.842;2023-06-14T09:01:37;4.05;;;3.00;;
14292;SDS011;62290;59.420;17.842;2023-06-14T09:04:11;3.45;;;3.15;;
14292;SDS011;62290;59.420;17.842;2023-06-14T09:06:39;6.45;;;3.33;;
14292;SDS011;62290;59.420;17.842;2023-06-14T09:09:07;4.22;;;3.83;;
14292;SDS011;62290;59.420;17.842;2023-06-14T09:11:35;5.75;;;3.28;;
14292;SDS011;62290;59.420;17.842;2023-06-14T09:14:04;14.60;;;3.92;;
14292;SDS011;62290;59.420;17.842;2023-06-14T09:16:32;11.73;;;4.13;;
14292;SDS011;62290;59.420;17.842;2023-06-14T09:19:00;18.15;;;4.20;;
14292;SDS011;62290;59.420;17.842;2023-06-14T09:21:31;10.63;;;3.20;;
14292;SDS011;62290;59.420;17.842;2023-06-14T09:24:02;6.47;;;3.60;;
14292;SDS011;62290;59.420;17.842;2023-06-14T09:26:31;4.90;;;3.83;;
14292;SDS011;62290;59.420;17.842;2023-06-14T09:28:59;6.38;;;3.65;;
14292;SDS011;62290;59.420;17.842;2023-06-14T09:31:27;5.18;;;3.75;;
14292;SDS011;62290;59.420;17.842;2023-06-14T09:33:58;9.88;;;4.40;;
14292;SDS011;62290;59.420;17.842;2023-06-14T09:36:31;9.88;;;3.65;;
14292;SDS011;62290;59.420;17.842;2023-06-14T09:39:00;9.25;;;4.07;;
14292;SDS011;62290;59.420;17.842;2023-06-14T09:41:32;7.32;;;4.25;;
14292;SDS011;62290;59.420;17.842;2023-06-14T09:44:01;6.97;;;4.13;;
14292;SDS011;62290;59.420;17.842;2023-06-14T09:46:35;6.68;;;4.20;;
14292;SDS011;62290;59.420;17.842;2023-06-14T09:49:04;5.93;;;3.90;;
14292;SDS011;62290;59.420;17.842;2023-06-14T09:51:34;8.65;;;4.35;;
14292;SDS011;62290;59.420;17.842;2023-06-14T09:54:11;6.03;;;3.95;;
14292;SDS011;62290;59.420;17.842;2023-06-14T09:56:44;11.32;;;4.55;;
14292;SDS011;62290;59.420;17.842;2023-06-14T09:59:14;5.97;;;3.88;;
14292;SDS011;62290;59.420;17.842;2023-06-14T10:01:47;5.28;;;3.63;;
14292;SDS011;62290;59.420;17.842;2023-06-14T10:04:16;10.30;;;4.63;;
14292;SDS011;62290;59.420;17.842;2023-06-14T10:06:49;8.82;;;4.50;;
14292;SDS011;62290;59.420;17.842;2023-06-14T10:09:20;10.05;;;4.43;;
14292;SDS011;62290;59.420;17.842;2023-06-14T10:11:49;7.63;;;4.53;;
14292;SDS011;62290;59.420;17.842;2023-06-14T10:14:18;8.70;;;4.53;;
14292;SDS011;62290;59.420;17.842;2023-06-14T10:16:48;7.57;;;4.30;;
14292;SDS011;62290;59.420;17.842;2023-06-14T10:19:24;7.72;;;4.28;;
14292;SDS011;62290;59.420;17.842;2023-06-14T10:22:02;5.07;;;4.10;;
14292;SDS011;62290;59.420;17.842;2023-06-14T10:24:37;6.35;;;4.30;;
14292;SDS011;62290;59.420;17.842;2023-06-14T10:27:09;5.13;;;4.63;;
14292;SDS011;62290;59.420;17.842;2023-06-14T10:29:50;5.97;;;4.47;;
14292;SDS011;62290;59.420;17.842;2023-06-14T10:32:30;6.63;;;4.15;;
14292;SDS011;62290;59.420;17.842;2023-06-14T10:35:00;14.77;;;3.88;;
14292;SDS011;62290;59.420;17.842;2023-06-14T10:37:30;8.52;;;4.20;;
14292;SDS011;62290;59.420;17.842;2023-06-14T10:39:59;5.15;;;4.25;;
14292;SDS011;62290;59.420;17.842;2023-06-14T10:42:31;5.32;;;4.45;;
14292;SDS011;62290;59.420;17.842;2023-06-14T10:45:00;7.07;;;4.22;;
14292;SDS011;62290;59.420;17.842;2023-06-14T10:47:29;7.20;;;4.93;;
14292;SDS011;62290;59.420;17.842;2023-06-14T10:50:02;5.97;;;3.83;;
14292;SDS011;62290;59.420;17.842;2023-06-14T10:52:34;6.20;;;4.55;;
14292;SDS011;62290;59.420;17.842;2023-06-14T10:55:06;5.32;;;4.20;;
14292;SDS011;62290;59.420;17.842;2023-06-14T10:57:42;4.60;;;4.10;;
14292;SDS011;62290;59.420;17.842;2023-06-14T11:00:18;6.90;;;4.72;;
14292;SDS011;62290;59.420;17.842;2023-06-14T11:03:04;6.88;;;4.95;;
14292;SDS011;62290;59.420;17.842;2023-06-14T11:06:10;7.32;;;4.50;;
14292;SDS011;62290;59.420;17.842;2023-06-14T11:11:56;6.32;;;4.28;;
14292;SDS011;62290;59.420;17.842;2023-06-14T11:14:24;6.00;;;4.63;;
14292;SDS011;62290;59.420;17.842;2023-06-14T11:16:53;5.18;;;4.68;;
14292;SDS011;62290;59.420;17.842;2023-06-14T11:19:21;4.32;;;3.88;;
14292;SDS011;62290;59.420;17.842;2023-06-14T11:21:49;6.88;;;4.35;;
14292;SDS011;62290;59.420;17.842;2023-06-14T11:24:17;4.75;;;4.25;;
14292;SDS011;62290;59.420;17.842;2023-06-14T11:26:48;6.40;;;4.20;;
14292;SDS011;62290;59.420;17.842;2023-06-14T11:29:16;5.38;;;4.40;;
14292;SDS011;62290;59.420;17.842;2023-06-14T11:31:48;6.70;;;4.32;;
14292;SDS011;62290;59.420;17.842;2023-06-14T11:34:16;6.07;;;4.38;;
14292;SDS011;62290;59.420;17.842;2023-06-14T11:36:45;9.52;;;4.45;;
14292;SDS011;62290;59.420;17.842;2023-06-14T11:39:14;4.82;;;4.32;;
14292;SDS011;62290;59.420;17.842;2023-06-14T11:41:43;4.88;;;4.15;;
14292;SDS011;62290;59.420;17.842;2023-06-14T11:44:13;6.22;;;4.45;;
14292;SDS011;62290;59.420;17.842;2023-06-14T11:46:41;6.80;;;4.32;;
14292;SDS011;62290;59.420;17.842;2023-06-14T11:49:09;4.53;;;4.13;;
14292;SDS011;62290;59.420;17.842;2023-06-14T11:51:37;5.35;;;4.40;;
14292;SDS011;62290;59.420;17.842;2023-06-14T11:54:06;8.02;;;3.85;;
14292;SDS011;62290;59.420;17.842;2023-06-14T11:56:36;5.85;;;4.80;;
14292;SDS011;62290;59.420;17.842;2023-06-14T11:59:04;7.55;;;4.53;;
14292;SDS011;62290;59.420;17.842;2023-06-14T12:01:36;10.55;;;4.78;;
14292;SDS011;62290;59.420;17.842;2023-06-14T12:04:06;12.05;;;4.30;;
14292;SDS011;62290;59.420;17.842;2023-06-14T12:06:34;8.57;;;4.38;;
14292;SDS011;62290;59.420;17.842;2023-06-14T12:09:06;6.80;;;4.13;;
14292;SDS011;62290;59.420;17.842;2023-06-14T12:11:40;4.90;;;3.85;;
14292;SDS011;62290;59.420;17.842;2023-06-14T12:14:09;6.45;;;4.40;;
14292;SDS011;62290;59.420;17.842;2023-06-14T12:16:38;9.50;;;4.30;;
14292;SDS011;62290;59.420;17.842;2023-06-14T12:19:09;8.23;;;4.30;;
14292;SDS011;62290;59.420;17.842;2023-06-14T12:21:40;7.05;;;4.80;;
14292;SDS011;62290;59.420;17.842;2023-06-14T12:24:11;6.40;;;4.18;;
14292;SDS011;62290;59.420;17.842;2023-06-14T12:26:40;7.03;;;4.20;;
14292;SDS011;62290;59.420;17.842;2023-06-14T12:29:09;6.72;;;4.43;;
14292;SDS011;62290;59.420;17.842;2023-06-14T12:31:40;5.60;;;4.35;;
14292;SDS011;62290;59.420;17.842;2023-06-14T12:34:09;5.07;;;4.43;;
14292;SDS011;62290;59.420;17.842;2023-06-14T12:36:37;6.63;;;4.15;;
14292;SDS011;62290;59.420;17.842;2023-06-14T12:39:10;8.32;;;4.40;;
14292;SDS011;62290;59.420;17.842;2023-06-14T12:41:39;7.35;;;4.30;;
14292;SDS011;62290;59.420;17.842;2023-06-14T12:44:08;5.85;;;4.50;;
14292;SDS011;62290;59.420;17.842;2023-06-14T12:46:36;4.68;;;4.20;;
14292;SDS011;62290;59.420;17.842;2023-06-14T12:49:09;4.25;;;3.85;;
14292;SDS011;62290;59.420;17.842;2023-06-14T12:51:38;4.63;;;4.07;;
14292;SDS011;62290;59.420;17.842;2023-06-14T12:54:07;5.85;;;3.95;;
14292;SDS011;62290;59.420;17.842;2023-06-14T12:56:35;4.72;;;3.90;;
14292;SDS011;62290;59.420;17.842;2023-06-14T12:59:03;4.60;;;4.20;;
14292;SDS011;62290;59.420;17.842;2023-06-14T13:01:32;9.68;;;4.28;;
14292;SDS011;62290;59.420;17.842;2023-06-14T13:04:00;5.47;;;4.07;;
14292;SDS011;62290;59.420;17.842;2023-06-14T13:06:30;7.57;;;4.93;;
14292;SDS011;62290;59.420;17.842;2023-06-14T13:09:00;6.78;;;4.32;;
14292;SDS011;62290;59.420;17.842;2023-06-14T13:11:30;4.65;;;4.18;;
14292;SDS011;62290;59.420;17.842;2023-06-14T13:13:58;4.95;;;3.72;;
14292;SDS011;62290;59.420;17.842;2023-06-14T13:16:31;5.65;;;3.70;;
14292;SDS011;62290;59.420;17.842;2023-06-14T13:18:59;6.22;;;3.92;;
14292;SDS011;62290;59.420;17.842;2023-06-14T13:21:27;4.35;;;3.95;;
14292;SDS011;62290;59.420;17.842;2023-06-14T13:23:57;6.65;;;3.88;;
14292;SDS011;62290;59.420;17.842;2023-06-14T13:26:25;4.47;;;3.80;;
14292;SDS011;62290;59.420;17.842;2023-06-14T13:28:53;5.10;;;4.55;;
14292;SDS011;62290;59.420;17.842;2023-06-14T13:31:21;6.10;;;3.65;;
14292;SDS011;62290;59.420;17.842;2023-06-14T13:33:49;4.88;;;4.38;;
14292;SDS011;62290;59.420;17.842;2023-06-14T13:36:17;5.22;;;4.68;;
14292;SDS011;62290;59.420;17.842;2023-06-14T13:38:45;5.70;;;4.07;;
14292;SDS011;62290;59.420;17.842;2023-06-14T13:41:16;8.05;;;4.13;;
14292;SDS011;62290;59.420;17.842;2023-06-14T13:43:44;5.05;;;4.03;;
14292;SDS011;62290;59.420;17.842;2023-06-14T13:46:12;5.68;;;4.50;;
14292;SDS011;62290;59.420;17.842;2023-06-14T13:48:40;6.32;;;4.63;;
14292;SDS011;62290;59.420;17.842;2023-06-14T13:51:08;5.25;;;4.65;;
14292;SDS011;62290;59.420;17.842;2023-06-14T13:53:37;6.57;;;4.13;;
14292;SDS011;62290;59.420;17.842;2023-06-14T13:56:05;6.78;;;3.85;;
14292;SDS011;62290;59.420;17.842;2023-06-14T13:58:37;5.00;;;3.85;;
14292;SDS011;62290;59.420;17.842;2023-06-14T14:01:05;4.75;;;3.58;;
14292;SDS011;62290;59.420;17.842;2023-06-14T14:03:34;8.43;;;4.28;;
14292;SDS011;62290;59.420;17.842;2023-06-14T14:06:02;6.22;;;4.20;;
14292;SDS011;62290;59.420;17.842;2023-06-14T14:08:32;4.78;;;4.00;;
14292;SDS011;62290;59.420;17.842;2023-06-14T14:11:00;5.63;;;4.10;;
14292;SDS011;62290;59.420;17.842;2023-06-14T14:13:28;6.80;;;4.80;;
14292;SDS011;62290;59.420;17.842;2023-06-14T14:15:57;7.10;;;4.65;;
14292;SDS011;62290;59.420;17.842;2023-06-14T14:18:25;5.40;;;4.20;;
14292;SDS011;62290;59.420;17.842;2023-06-14T14:20:57;7.07;;;4.45;;
14292;SDS011;62290;59.420;17.842;2023-06-14T14:23:25;4.85;;;4.13;;
14292;SDS011;62290;59.420;17.842;2023-06-14T14:25:53;6.13;;;3.85;;
14292;SDS011;62290;59.420;17.842;2023-06-14T14:28:21;5.82;;;4.07;;
14292;SDS011;62290;59.420;17.842;2023-06-14T14:30:49;5.20;;;3.92;;
14292;SDS011;62290;59.420;17.842;2023-06-14T14:33:19;6.38;;;4.00;;
14292;SDS011;62290;59.420;17.842;2023-06-14T14:35:47;8.52;;;3.97;;
14292;SDS011;62290;59.420;17.842;2023-06-14T14:38:15;7.65;;;4.20;;
14292;SDS011;62290;59.420;17.842;2023-06-14T14:40:43;4.43;;;4.03;;
14292;SDS011;62290;59.420;17.842;2023-06-14T14:43:11;6.18;;;4.60;;
14292;SDS011;62290;59.420;17.842;2023-06-14T14:45:39;4.35;;;3.95;;
14292;SDS011;62290;59.420;17.842;2023-06-14T14:48:07;7.70;;;3.67;;
14292;SDS011;62290;59.420;17.842;2023-06-14T14:50:37;6.45;;;4.28;;